sensor_id;sensor_type;location;lat;lon;timestamp;P1;durP1;ratioP1;P2;durP2;ratioP2
45033;SDS011;30771;47.988;-4.186;2023-07-29T06:02:18;29.13;;;6.95;;
45033;SDS011;30771;47.988;-4.186;2023-07-29T06:04:43;25.75;;;6.72;;
45033;SDS011;30771;47.988;-4.186;2023-07-29T06:07:09;31.58;;;7.05;;
45033;SDS011;30771;47.988;-4.186;2023-07-29T06:09:34;25.92;;;6.90;;
45033;SDS011;30771;47.988;-4.186;2023-07-29T06:12:00;26.88;;;6.68;;
45033;SDS011;30771;47.988;-4.186;2023-07-29T06:14:25;30.08;;;6.53;;
45033;SDS011;30771;47.988;-4.186;2023-07-29T06:16:50;24.77;;;6.10;;
45033;SDS011;30771;47.988;-4.186;2023-07-29T06:19:16;29.83;;;5.65;;
45033;SDS011;30771;47.988;-4.186;2023-07-29T06:21:41;24.10;;;5.38;;
45033;SDS011;30771;47.988;-4.186;2023-07-29T06:24:07;23.58;;;5.88;;
45033;SDS011;30771;47.988;-4.186;2023-07-29T06:26:32;23.00;;;6.47;;
45033;SDS011;30771;47.988;-4.186;2023-07-29T06:28:57;25.23;;;5.80;;
45033;SDS011;30771;47.988;-4.186;2023-07-29T06:31:23;27.25;;;6.43;;
45033;SDS011;30771;47.988;-4.186;2023-07-29T06:33:48;21.25;;;6.03;;
45033;SDS011;30771;47.988;-4.186;2023-07-29T06:36:13;21.40;;;5.47;;
45033;SDS011;30771;47.988;-4.186;2023-07-29T06:38:38;24.05;;;6.40;;
45033;SDS011;30771;47.988;-4.186;2023-07-29T06:41:04;28.67;;;6.25;;
45033;SDS011;30771;47.988;-4.186;2023-07-29T06:43:29;24.15;;;6.55;;
45033;SDS011;30771;47.988;-4.186;2023-07-29T06:45:55;27.00;;;6.63;;
45033;SDS011;30771;47.988;-4.186;2023-07-29T06:48:20;30.10;;;6.60;;
45033;SDS011;30771;47.988;-4.186;2023-07-29T06:50:45;27.30;;;5.78;;
45033;SDS011;30771;47.988;-4.186;2023-07-29T06:53:11;25.17;;;6.20;;
45033;SDS011;30771;47.988;-4.186;2023-07-29T06:55:36;23.80;;;6.55;;
45033;SDS011;30771;47.988;-4.186;2023-07-29T06:58:01;26.17;;;6.40;;
45033;SDS011;30771;47.988;-4.186;2023-07-29T07:00:26;25.27;;;5.70;;
45033;SDS011;30771;47.988;-4.186;2023-07-29T07:02:52;24.73;;;5.70;;
45033;SDS011;30771;47.988;-4.186;2023-07-29T07:05:17;24.58;;;6.35;;
45033;SDS011;30771;47.988;-4.186;2023-07-29T07:07:42;24.88;;;5.68;;
45033;SDS011;30771;47.988;-4.186;2023-07-29T07:10:08;26.75;;;5.85;;
45033;SDS011;30771;47.988;-4.186;2023-07-29T07:12:33;24.58;;;5.60;;
45033;SDS011;30771;47.988;-4.186;2023-07-29T07:14:59;21.70;;;5.80;;
45033;SDS011;30771;47.988;-4.186;2023-07-29T07:17:25;23.63;;;5.28;;
45033;SDS011;30771;47.988;-4.186;2023-07-29T07:19:50;19.58;;;5.43;;
45033;SDS011;30771;47.988;-4.186;2023-07-29T07:22:16;20.83;;;5.15;;
45033;SDS011;30771;47.988;-4.186;2023-07-29T07:24:41;20.92;;;5.43;;
45033;SDS011;30771;47.988;-4.186;2023-07-29T07:27:06;21.90;;;5.53;;
45033;SDS011;30771;47.988;-4.186;2023-07-29T07:29:31;22.40;;;5.20;;
45033;SDS011;30771;47.988;-4.186;2023-07-29T07:31:57;19.05;;;5.22;;
45033;SDS011;30771;47.988;-4.186;2023-07-29T07:34:22;16.13;;;4.47;;
45033;SDS011;30771;47.988;-4.186;2023-07-29T07:36:48;19.20;;;5.72;;
45033;SDS011;30771;47.988;-4.186;2023-07-29T07:39:14;15.80;;;4.43;;
45033;SDS011;30771;47.988;-4.186;2023-07-29T07:41:40;19.40;;;4.40;;
45033;SDS011;30771;47.988;-4.186;2023-07-29T07:44:05;14.52;;;4.25;;
45033;SDS011;30771;47.988;-4.186;2023-07-29T07:46:31;14.15;;;4.38;;
45033;SDS011;30771;47.988;-4.186;2023-07-29T07:48:56;10.65;;;4.05;;
45033;SDS011;30771;47.988;-4.186;2023-07-29T07:51:21;13.50;;;4.32;;
45033;SDS011;30771;47.988;-4.186;2023-07-29T07:53:46;12.93;;;4.22;;
45033;SDS011;30771;47.988;-4.186;2023-07-29T07:56:12;11.40;;;4.32;;
45033;SDS011;30771;47.988;-4.186;2023-07-29T07:58:38;13.43;;;3.90;;
45033;SDS011;30771;47.988;-4.186;2023-07-29T08:01:04;17.92;;;3.70;;
45033;SDS011;30771;47.988;-4.186;2023-07-29T08:03:30;13.57;;;3.95;;
45033;SDS011;30771;47.988;-4.186;2023-07-29T08:05:56;18.50;;;4.15;;
45033;SDS011;30771;47.988;-4.186;2023-07-29T08:08:21;21.33;;;4.57;;
45033;SDS011;30771;47.988;-4.186;2023-07-29T08:10:46;17.05;;;4.07;;
45033;SDS011;30771;47.988;-4.186;2023-07-29T08:13:13;18.15;;;4.45;;
45033;SDS011;30771;47.988;-4.186;2023-07-29T08:15:38;17.33;;;3.55;;
45033;SDS011;30771;47.988;-4.186;2023-07-29T08:18:03;16.60;;;3.97;;
45033;SDS011;30771;47.988;-4.186;2023-07-29T08:20:29;15.60;;;3.80;;
45033;SDS011;30771;47.988;-4.186;2023-07-29T08:22:54;16.40;;;3.83;;
45033;SDS011;30771;47.988;-4.186;2023-07-29T08:25:19;14.95;;;3.35;;
45033;SDS011;30771;47.988;-4.186;2023-07-29T08:27:45;15.32;;;2.97;;
45033;SDS011;30771;47.988;-4.186;2023-07-29T08:30:10;12.82;;;2.92;;
45033;SDS011;30771;47.988;-4.186;2023-07-29T08:32:35;15.10;;;3.60;;
45033;SDS011;30771;47.988;-4.186;2023-07-29T08:35:01;11.23;;;3.13;;
45033;SDS011;30771;47.988;-4.186;2023-07-29T08:37:26;19.27;;;3.63;;
45033;SDS011;30771;47.988;-4.186;2023-07-29T08:39:51;13.35;;;3.20;;
45033;SDS011;30771;47.988;-4.186;2023-07-29T08:42:16;16.75;;;3.47;;
45033;SDS011;30771;47.988;-4.186;2023-07-29T08:44:44;10.98;;;3.28;;
45033;SDS011;30771;47.988;-4.186;2023-07-29T08:47:10;17.23;;;3.90;;
45033;SDS011;30771;47.988;-4.186;2023-07-29T08:49:36;13.50;;;3.35;;
45033;SDS011;30771;47.988;-4.186;2023-07-29T08:52:03;9.90;;;2.83;;
45033;SDS011;30771;47.988;-4.186;2023-07-29T08:54:30;11.85;;;3.15;;
45033;SDS011;30771;47.988;-4.186;2023-07-29T08:56:55;10.65;;;2.70;;
45033;SDS011;30771;47.988;-4.186;2023-07-29T08:59:21;7.80;;;2.40;;
45033;SDS011;30771;47.988;-4.186;2023-07-29T09:01:47;12.68;;;2.53;;
45033;SDS011;30771;47.988;-4.186;2023-07-29T09:04:12;7.80;;;2.20;;
45033;SDS011;30771;47.988;-4.186;2023-07-29T09:06:38;8.48;;;2.30;;
45033;SDS011;30771;47.988;-4.186;2023-07-29T09:09:04;11.40;;;2.22;;
45033;SDS011;30771;47.988;-4.186;2023-07-29T09:11:30;5.47;;;2.03;;
45033;SDS011;30771;47.988;-4.186;2023-07-29T09:13:56;9.15;;;2.45;;
45033;SDS011;30771;47.988;-4.186;2023-07-29T09:16:21;10.05;;;2.58;;
45033;SDS011;30771;47.988;-4.186;2023-07-29T09:18:48;10.73;;;2.70;;
45033;SDS011;30771;47.988;-4.186;2023-07-29T09:21:13;13.90;;;3.38;;
45033;SDS011;30771;47.988;-4.186;2023-07-29T09:23:40;9.25;;;2.30;;
45033;SDS011;30771;47.988;-4.186;2023-07-29T09:26:07;9.52;;;2.72;;
45033;SDS011;30771;47.988;-4.186;2023-07-29T09:28:34;6.22;;;2.20;;
45033;SDS011;30771;47.988;-4.186;2023-07-29T09:31:00;9.77;;;2.97;;
45033;SDS011;30771;47.988;-4.186;2023-07-29T09:33:26;8.75;;;2.80;;
45033;SDS011;30771;47.988;-4.186;2023-07-29T09:35:51;8.52;;;2.30;;
45033;SDS011;30771;47.988;-4.186;2023-07-29T09:38:17;9.70;;;3.00;;
45033;SDS011;30771;47.988;-4.186;2023-07-29T09:40:42;8.57;;;2.50;;
45033;SDS011;30771;47.988;-4.186;2023-07-29T09:43:09;7.88;;;2.17;;
45033;SDS011;30771;47.988;-4.186;2023-07-29T09:45:35;7.00;;;2.10;;
45033;SDS011;30771;47.988;-4.186;2023-07-29T09:48:01;7.28;;;2.00;;
45033;SDS011;30771;47.988;-4.186;2023-07-29T09:50:28;6.85;;;1.70;;
45033;SDS011;30771;47.988;-4.186;2023-07-29T09:52:54;4.47;;;2.00;;
45033;SDS011;30771;47.988;-4.186;2023-07-29T09:55:21;4.18;;;1.70;;
45033;SDS011;30771;47.988;-4.186;2023-07-29T09:57:48;3.65;;;1.33;;
45033;SDS011;30771;47.988;-4.186;2023-07-29T10:00:13;5.93;;;1.70;;
45033;SDS011;30771;47.988;-4.186;2023-07-29T10:02:39;6.05;;;1.85;;
45033;SDS011;30771;47.988;-4.186;2023-07-29T10:05:05;4.72;;;1.80;;
45033;SDS011;30771;47.988;-4.186;2023-07-29T10:07:32;6.50;;;2.00;;
45033;SDS011;30771;47.988;-4.186;2023-07-29T10:09:59;6.68;;;1.40;;
45033;SDS011;30771;47.988;-4.186;2023-07-29T10:12:26;6.85;;;1.67;;
45033;SDS011;30771;47.988;-4.186;2023-07-29T10:14:53;5.28;;;2.00;;
45033;SDS011;30771;47.988;-4.186;2023-07-29T10:17:20;5.75;;;1.73;;
45033;SDS011;30771;47.988;-4.186;2023-07-29T10:19:46;6.97;;;2.10;;
45033;SDS011;30771;47.988;-4.186;2023-07-29T10:22:12;5.15;;;1.65;;
45033;SDS011;30771;47.988;-4.186;2023-07-29T10:24:40;5.90;;;1.83;;
45033;SDS011;30771;47.988;-4.186;2023-07-29T10:27:09;5.53;;;1.70;;
45033;SDS011;30771;47.988;-4.186;2023-07-29T10:29:38;4.60;;;1.65;;
45033;SDS011;30771;47.988;-4.186;2023-07-29T10:32:08;6.35;;;1.92;;
45033;SDS011;30771;47.988;-4.186;2023-07-29T10:34:36;6.43;;;1.85;;
45033;SDS011;30771;47.988;-4.186;2023-07-29T10:37:01;5.80;;;1.77;;
45033;SDS011;30771;47.988;-4.186;2023-07-29T10:39:26;2.78;;;0.70;;
45033;SDS011;30771;47.988;-4.186;2023-07-29T10:41:59;2.22;;;0.80;;
45033;SDS011;30771;47.988;-4.186;2023-07-29T10:47:13;1.60;;;0.80;;
45033;SDS011;30771;47.988;-4.186;2023-07-29T10:49:42;1.73;;;0.88;;
45033;SDS011;30771;47.988;-4.186;2023-07-29T10:52:09;3.53;;;1.00;;
45033;SDS011;30771;47.988;-4.186;2023-07-29T10:54:47;2.25;;;1.20;;
45033;SDS011;30771;47.988;-4.186;2023-07-29T10:57:13;1.20;;;1.00;;
45033;SDS011;30771;47.988;-4.186;2023-07-29T10:59:39;2.45;;;0.80;;
45033;SDS011;30771;47.988;-4.186;2023-07-29T11:02:11;1.80;;;0.70;;
45033;SDS011;30771;47.988;-4.186;2023-07-29T11:04:49;2.03;;;0.80;;
45033;SDS011;30771;47.988;-4.186;2023-07-29T11:09:54;1.92;;;0.77;;
45033;SDS011;30771;47.988;-4.186;2023-07-29T11:12:42;1.67;;;0.50;;
45033;SDS011;30771;47.988;-4.186;2023-07-29T11:17:35;1.15;;;0.80;;
45033;SDS011;30771;47.988;-4.186;2023-07-29T11:20:03;2.22;;;0.82;;
45033;SDS011;30771;47.988;-4.186;2023-07-29T11:22:29;1.83;;;0.90;;
45033;SDS011;30771;47.988;-4.186;2023-07-29T11:24:55;2.17;;;1.02;;
45033;SDS011;30771;47.988;-4.186;2023-07-29T11:27:21;2.15;;;1.02;;
45033;SDS011;30771;47.988;-4.186;2023-07-29T11:29:46;1.98;;;1.00;;
45033;SDS011;30771;47.988;-4.186;2023-07-29T11:32:12;3.60;;;1.30;;
45033;SDS011;30771;47.988;-4.186;2023-07-29T11:34:38;4.40;;;1.65;;
45033;SDS011;30771;47.988;-4.186;2023-07-29T11:37:03;3.88;;;1.77;;
45033;SDS011;30771;47.988;-4.186;2023-07-29T11:39:29;5.25;;;2.25;;
45033;SDS011;30771;47.988;-4.186;2023-07-29T11:41:54;9.88;;;2.50;;
45033;SDS011;30771;47.988;-4.186;2023-07-29T11:44:19;9.15;;;2.60;;
45033;SDS011;30771;47.988;-4.186;2023-07-29T11:46:45;6.70;;;2.60;;
45033;SDS011;30771;47.988;-4.186;2023-07-29T11:49:10;6.97;;;2.50;;
45033;SDS011;30771;47.988;-4.186;2023-07-29T11:51:38;5.15;;;2.53;;
45033;SDS011;30771;47.988;-4.186;2023-07-29T11:54:06;6.25;;;2.97;;
45033;SDS011;30771;47.988;-4.186;2023-07-29T11:56:31;8.55;;;3.03;;
45033;SDS011;30771;47.988;-4.186;2023-07-29T11:58:57;6.40;;;2.90;;
45033;SDS011;30771;47.988;-4.186;2023-07-29T12:01:22;5.35;;;2.50;;
45033;SDS011;30771;47.988;-4.186;2023-07-29T12:03:49;8.15;;;3.42;;
45033;SDS011;30771;47.988;-4.186;2023-07-29T12:06:15;8.60;;;2.85;;
45033;SDS011;30771;47.988;-4.186;2023-07-29T12:08:41;6.28;;;2.88;;
45033;SDS011;30771;47.988;-4.186;2023-07-29T12:11:08;7.13;;;3.10;;
45033;SDS011;30771;47.988;-4.186;2023-07-29T12:13:33;8.40;;;3.08;;
45033;SDS011;30771;47.988;-4.186;2023-07-29T12:16:01;6.55;;;2.85;;
45033;SDS011;30771;47.988;-4.186;2023-07-29T12:18:30;7.47;;;3.03;;
45033;SDS011;30771;47.988;-4.186;2023-07-29T12:20:56;8.10;;;2.88;;
45033;SDS011;30771;47.988;-4.186;2023-07-29T12:23:25;9.90;;;3.03;;
45033;SDS011;30771;47.988;-4.186;2023-07-29T12:28:16;8.15;;;2.97;;
45033;SDS011;30771;47.988;-4.186;2023-07-29T12:30:42;5.45;;;2.45;;
45033;SDS011;30771;47.988;-4.186;2023-07-29T12:33:08;8.02;;;2.70;;
45033;SDS011;30771;47.988;-4.186;2023-07-29T12:35:37;10.00;;;3.15;;
45033;SDS011;30771;47.988;-4.186;2023-07-29T12:38:02;5.97;;;2.80;;
45033;SDS011;30771;47.988;-4.186;2023-07-29T12:40:28;10.23;;;2.85;;
45033;SDS011;30771;47.988;-4.186;2023-07-29T12:42:53;8.55;;;2.97;;
45033;SDS011;30771;47.988;-4.186;2023-07-29T12:45:19;9.13;;;2.45;;
45033;SDS011;30771;47.988;-4.186;2023-07-29T12:47:44;8.25;;;2.83;;
45033;SDS011;30771;47.988;-4.186;2023-07-29T12:50:10;6.68;;;2.63;;
45033;SDS011;30771;47.988;-4.186;2023-07-29T12:52:35;10.55;;;3.00;;
45033;SDS011;30771;47.988;-4.186;2023-07-29T12:55:01;7.35;;;2.78;;
45033;SDS011;30771;47.988;-4.186;2023-07-29T12:57:26;10.35;;;2.83;;
45033;SDS011;30771;47.988;-4.186;2023-07-29T12:59:51;8.65;;;3.05;;
45033;SDS011;30771;47.988;-4.186;2023-07-29T13:02:17;11.90;;;3.70;;
45033;SDS011;30771;47.988;-4.186;2023-07-29T13:04:42;12.95;;;3.72;;
45033;SDS011;30771;47.988;-4.186;2023-07-29T13:07:07;14.13;;;3.65;;
45033;SDS011;30771;47.988;-4.186;2023-07-29T13:09:32;9.60;;;3.75;;
45033;SDS011;30771;47.988;-4.186;2023-07-29T13:11:58;8.02;;;3.28;;
45033;SDS011;30771;47.988;-4.186;2023-07-29T13:14:23;16.48;;;4.57;;
45033;SDS011;30771;47.988;-4.186;2023-07-29T13:16:48;14.48;;;3.97;;
45033;SDS011;30771;47.988;-4.186;2023-07-29T13:19:14;13.10;;;4.43;;
45033;SDS011;30771;47.988;-4.186;2023-07-29T13:21:39;11.30;;;3.70;;
45033;SDS011;30771;47.988;-4.186;2023-07-29T13:24:04;13.20;;;3.95;;
45033;SDS011;30771;47.988;-4.186;2023-07-29T13:26:29;9.98;;;3.40;;
45033;SDS011;30771;47.988;-4.186;2023-07-29T13:28:55;15.60;;;4.35;;
45033;SDS011;30771;47.988;-4.186;2023-07-29T13:31:20;15.95;;;4.00;;
45033;SDS011;30771;47.988;-4.186;2023-07-29T13:33:45;13.65;;;3.95;;
45033;SDS011;30771;47.988;-4.186;2023-07-29T13:36:10;12.73;;;3.53;;
45033;SDS011;30771;47.988;-4.186;2023-07-29T13:38:36;12.38;;;2.95;;
45033;SDS011;30771;47.988;-4.186;2023-07-29T13:41:01;12.43;;;2.97;;
45033;SDS011;30771;47.988;-4.186;2023-07-29T13:43:26;9.82;;;3.00;;
45033;SDS011;30771;47.988;-4.186;2023-07-29T13:45:51;15.73;;;3.78;;
45033;SDS011;30771;47.988;-4.186;2023-07-29T13:48:17;18.13;;;3.13;;
45033;SDS011;30771;47.988;-4.186;2023-07-29T13:50:43;14.73;;;3.38;;
45033;SDS011;30771;47.988;-4.186;2023-07-29T13:53:08;13.32;;;3.40;;
45033;SDS011;30771;47.988;-4.186;2023-07-29T13:55:33;14.45;;;3.40;;
45033;SDS011;30771;47.988;-4.186;2023-07-29T13:57:58;14.38;;;2.80;;
45033;SDS011;30771;47.988;-4.186;2023-07-29T14:00:24;12.90;;;3.13;;
45033;SDS011;30771;47.988;-4.186;2023-07-29T14:02:49;14.75;;;2.97;;
45033;SDS011;30771;47.988;-4.186;2023-07-29T14:05:14;14.40;;;3.53;;
45033;SDS011;30771;47.988;-4.186;2023-07-29T14:07:40;15.13;;;3.03;;
45033;SDS011;30771;47.988;-4.186;2023-07-29T14:10:05;16.85;;;3.08;;
45033;SDS011;30771;47.988;-4.186;2023-07-29T14:12:31;19.33;;;4.07;;
45033;SDS011;30771;47.988;-4.186;2023-07-29T14:14:56;13.55;;;2.60;;
45033;SDS011;30771;47.988;-4.186;2023-07-29T14:17:21;13.30;;;2.50;;
45033;SDS011;30771;47.988;-4.186;2023-07-29T14:19:46;13.98;;;2.53;;
45033;SDS011;30771;47.988;-4.186;2023-07-29T14:22:12;13.63;;;2.85;;
45033;SDS011;30771;47.988;-4.186;2023-07-29T14:24:37;13.60;;;2.88;;
45033;SDS011;30771;47.988;-4.186;2023-07-29T14:27:02;9.65;;;1.90;;
45033;SDS011;30771;47.988;-4.186;2023-07-29T14:29:28;13.80;;;3.00;;
45033;SDS011;30771;47.988;-4.186;2023-07-29T14:31:53;10.93;;;2.60;;
45033;SDS011;30771;47.988;-4.186;2023-07-29T14:34:19;14.13;;;2.35;;
45033;SDS011;30771;47.988;-4.186;2023-07-29T14:36:44;13.88;;;2.65;;
45033;SDS011;30771;47.988;-4.186;2023-07-29T14:39:09;12.65;;;2.05;;
45033;SDS011;30771;47.988;-4.186;2023-07-29T14:41:34;8.98;;;1.60;;
45033;SDS011;30771;47.988;-4.186;2023-07-29T14:44:00;10.82;;;1.70;;
45033;SDS011;30771;47.988;-4.186;2023-07-29T14:46:25;10.10;;;1.90;;
45033;SDS011;30771;47.988;-4.186;2023-07-29T14:48:50;11.90;;;1.92;;
45033;SDS011;30771;47.988;-4.186;2023-07-29T14:51:15;12.70;;;2.30;;
45033;SDS011;30771;47.988;-4.186;2023-07-29T14:53:41;9.10;;;1.77;;
45033;SDS011;30771;47.988;-4.186;2023-07-29T14:56:06;10.38;;;2.08;;
45033;SDS011;30771;47.988;-4.186;2023-07-29T14:58:31;15.32;;;2.65;;
45033;SDS011;30771;47.988;-4.186;2023-07-29T15:00:57;14.55;;;2.35;;
45033;SDS011;30771;47.988;-4.186;2023-07-29T15:03:23;12.40;;;2.30;;
45033;SDS011;30771;47.988;-4.186;2023-07-29T15:05:50;12.27;;;2.55;;
45033;SDS011;30771;47.988;-4.186;2023-07-29T15:08:16;8.90;;;1.63;;
45033;SDS011;30771;47.988;-4.186;2023-07-29T15:10:45;8.90;;;1.83;;
45033;SDS011;30771;47.988;-4.186;2023-07-29T15:13:10;13.68;;;2.08;;
45033;SDS011;30771;47.988;-4.186;2023-07-29T15:15:36;14.52;;;2.38;;
45033;SDS011;30771;47.988;-4.186;2023-07-29T15:18:01;11.15;;;2.15;;
45033;SDS011;30771;47.988;-4.186;2023-07-29T15:20:26;13.65;;;2.25;;
45033;SDS011;30771;47.988;-4.186;2023-07-29T15:22:51;11.00;;;2.10;;
45033;SDS011;30771;47.988;-4.186;2023-07-29T15:25:17;7.68;;;1.60;;
45033;SDS011;30771;47.988;-4.186;2023-07-29T15:27:42;10.27;;;2.10;;
45033;SDS011;30771;47.988;-4.186;2023-07-29T15:30:07;10.55;;;2.20;;
45033;SDS011;30771;47.988;-4.186;2023-07-29T15:32:33;9.80;;;2.20;;
45033;SDS011;30771;47.988;-4.186;2023-07-29T15:34:58;9.98;;;2.05;;
45033;SDS011;30771;47.988;-4.186;2023-07-29T15:37:27;10.27;;;1.75;;
45033;SDS011;30771;47.988;-4.186;2023-07-29T15:39:52;12.70;;;2.08;;
45033;SDS011;30771;47.988;-4.186;2023-07-29T15:42:17;7.63;;;1.70;;
45033;SDS011;30771;47.988;-4.186;2023-07-29T15:44:43;13.73;;;1.92;;
45033;SDS011;30771;47.988;-4.186;2023-07-29T15:47:08;9.88;;;1.90;;
45033;SDS011;30771;47.988;-4.186;2023-07-29T15:49:33;6.40;;;1.45;;
45033;SDS011;30771;47.988;-4.186;2023-07-29T15:51:59;10.20;;;1.60;;
45033;SDS011;30771;47.988;-4.186;2023-07-29T15:54:24;9.80;;;1.40;;
45033;SDS011;30771;47.988;-4.186;2023-07-29T15:56:49;8.35;;;1.40;;
45033;SDS011;30771;47.988;-4.186;2023-07-29T15:59:14;5.00;;;1.23;;
45033;SDS011;30771;47.988;-4.186;2023-07-29T16:01:40;6.18;;;1.40;;
45033;SDS011;30771;47.988;-4.186;2023-07-29T16:04:05;6.57;;;1.20;;
45033;SDS011;30771;47.988;-4.186;2023-07-29T16:06:30;7.65;;;1.15;;
45033;SDS011;30771;47.988;-4.186;2023-07-29T16:08:55;5.05;;;1.00;;
45033;SDS011;30771;47.988;-4.186;2023-07-29T16:11:21;5.28;;;1.30;;
45033;SDS011;30771;47.988;-4.186;2023-07-29T16:13:46;8.23;;;1.58;;
45033;SDS011;30771;47.988;-4.186;2023-07-29T16:16:12;7.75;;;1.30;;
45033;SDS011;30771;47.988;-4.186;2023-07-29T16:18:37;7.85;;;1.42;;
45033;SDS011;30771;47.988;-4.186;2023-07-29T16:21:02;6.90;;;1.15;;
45033;SDS011;30771;47.988;-4.186;2023-07-29T16:23:28;6.10;;;1.08;;
45033;SDS011;30771;47.988;-4.186;2023-07-29T16:25:54;4.75;;;1.00;;
45033;SDS011;30771;47.988;-4.186;2023-07-29T16:28:19;6.97;;;1.08;;
45033;SDS011;30771;47.988;-4.186;2023-07-29T16:30:44;4.93;;;1.15;;
45033;SDS011;30771;47.988;-4.186;2023-07-29T16:33:10;5.55;;;1.10;;
45033;SDS011;30771;47.988;-4.186;2023-07-29T16:35:35;4.68;;;1.00;;
45033;SDS011;30771;47.988;-4.186;2023-07-29T16:38:00;7.60;;;1.50;;
45033;SDS011;30771;47.988;-4.186;2023-07-29T16:40:25;7.38;;;1.40;;
45033;SDS011;30771;47.988;-4.186;2023-07-29T16:42:51;5.32;;;1.42;;
45033;SDS011;30771;47.988;-4.186;2023-07-29T16:45:17;7.20;;;1.30;;
45033;SDS011;30771;47.988;-4.186;2023-07-29T16:47:42;5.95;;;1.25;;
45033;SDS011;30771;47.988;-4.186;2023-07-29T16:50:07;7.22;;;1.25;;
45033;SDS011;30771;47.988;-4.186;2023-07-29T16:52:33;7.15;;;1.52;;
45033;SDS011;30771;47.988;-4.186;2023-07-29T16:54:58;10.05;;;1.50;;
45033;SDS011;30771;47.988;-4.186;2023-07-29T16:57:23;5.78;;;1.33;;
45033;SDS011;30771;47.988;-4.186;2023-07-29T16:59:49;10.60;;;1.63;;
45033;SDS011;30771;47.988;-4.186;2023-07-29T17:02:14;6.07;;;1.30;;
45033;SDS011;30771;47.988;-4.186;2023-07-29T17:04:39;7.65;;;1.70;;
45033;SDS011;30771;47.988;-4.186;2023-07-29T17:07:04;6.75;;;1.60;;
45033;SDS011;30771;47.988;-4.186;2023-07-29T17:09:30;10.45;;;2.00;;
45033;SDS011;30771;47.988;-4.186;2023-07-29T17:11:55;8.40;;;1.60;;
45033;SDS011;30771;47.988;-4.186;2023-07-29T17:14:21;9.50;;;1.65;;
45033;SDS011;30771;47.988;-4.186;2023-07-29T17:16:46;8.57;;;2.08;;
45033;SDS011;30771;47.988;-4.186;2023-07-29T17:19:11;4.80;;;1.80;;
45033;SDS011;30771;47.988;-4.186;2023-07-29T17:21:37;7.40;;;1.80;;
45033;SDS011;30771;47.988;-4.186;2023-07-29T17:24:02;6.82;;;1.70;;
45033;SDS011;30771;47.988;-4.186;2023-07-29T17:26:27;9.52;;;1.75;;
45033;SDS011;30771;47.988;-4.186;2023-07-29T17:28:53;7.72;;;1.88;;
45033;SDS011;30771;47.988;-4.186;2023-07-29T17:31:18;11.07;;;2.00;;
45033;SDS011;30771;47.988;-4.186;2023-07-29T17:33:43;10.45;;;1.88;;
45033;SDS011;30771;47.988;-4.186;2023-07-29T17:36:08;9.23;;;1.65;;
45033;SDS011;30771;47.988;-4.186;2023-07-29T17:38:34;9.20;;;2.03;;
45033;SDS011;30771;47.988;-4.186;2023-07-29T17:40:59;14.20;;;2.22;;
45033;SDS011;30771;47.988;-4.186;2023-07-29T17:43:37;8.65;;;2.17;;
45033;SDS011;30771;47.988;-4.186;2023-07-29T17:46:02;7.03;;;1.85;;
45033;SDS011;30771;47.988;-4.186;2023-07-29T17:48:28;8.65;;;1.95;;
45033;SDS011;30771;47.988;-4.186;2023-07-29T17:50:53;7.93;;;1.80;;
45033;SDS011;30771;47.988;-4.186;2023-07-29T17:53:18;7.78;;;1.70;;
45033;SDS011;30771;47.988;-4.186;2023-07-29T17:55:43;8.13;;;2.10;;
45033;SDS011;30771;47.988;-4.186;2023-07-29T17:58:09;15.15;;;2.28;;
45033;SDS011;30771;47.988;-4.186;2023-07-29T18:00:34;9.95;;;1.90;;
45033;SDS011;30771;47.988;-4.186;2023-07-29T18:02:59;8.60;;;1.90;;
45033;SDS011;30771;47.988;-4.186;2023-07-29T18:05:25;11.13;;;2.40;;
45033;SDS011;30771;47.988;-4.186;2023-07-29T18:07:51;10.18;;;1.90;;
45033;SDS011;30771;47.988;-4.186;2023-07-29T18:10:16;10.88;;;1.83;;
45033;SDS011;30771;47.988;-4.186;2023-07-29T18:12:41;9.75;;;2.15;;
45033;SDS011;30771;47.988;-4.186;2023-07-29T18:15:07;7.82;;;1.92;;
45033;SDS011;30771;47.988;-4.186;2023-07-29T18:17:33;12.98;;;2.05;;
45033;SDS011;30771;47.988;-4.186;2023-07-29T18:19:58;8.90;;;1.95;;
45033;SDS011;30771;47.988;-4.186;2023-07-29T18:22:24;9.60;;;1.85;;
45033;SDS011;30771;47.988;-4.186;2023-07-29T18:24:49;11.43;;;2.10;;
45033;SDS011;30771;47.988;-4.186;2023-07-29T18:27:14;8.95;;;1.70;;
45033;SDS011;30771;47.988;-4.186;2023-07-29T18:29:39;12.25;;;2.17;;
45033;SDS011;30771;47.988;-4.186;2023-07-29T18:32:05;13.75;;;2.28;;
45033;SDS011;30771;47.988;-4.186;2023-07-29T18:34:30;10.07;;;2.00;;
45033;SDS011;30771;47.988;-4.186;2023-07-29T18:36:56;12.50;;;2.22;;
45033;SDS011;30771;47.988;-4.186;2023-07-29T18:39:21;13.32;;;2.53;;
45033;SDS011;30771;47.988;-4.186;2023-07-29T18:41:46;12.73;;;2.30;;
45033;SDS011;30771;47.988;-4.186;2023-07-29T18:44:12;13.23;;;2.65;;
45033;SDS011;30771;47.988;-4.186;2023-07-29T18:46:37;17.20;;;2.33;;
45033;SDS011;30771;47.988;-4.186;2023-07-29T18:49:02;12.93;;;3.20;;
45033;SDS011;30771;47.988;-4.186;2023-07-29T18:51:27;12.43;;;2.58;;
45033;SDS011;30771;47.988;-4.186;2023-07-29T18:53:53;13.75;;;2.90;;
45033;SDS011;30771;47.988;-4.186;2023-07-29T18:56:18;9.60;;;2.10;;
45033;SDS011;30771;47.988;-4.186;2023-07-29T18:58:43;13.13;;;2.53;;
45033;SDS011;30771;47.988;-4.186;2023-07-29T19:01:08;14.65;;;2.67;;
45033;SDS011;30771;47.988;-4.186;2023-07-29T19:03:34;14.52;;;2.83;;
45033;SDS011;30771;47.988;-4.186;2023-07-29T19:05:59;15.88;;;2.63;;
45033;SDS011;30771;47.988;-4.186;2023-07-29T19:08:25;11.10;;;2.47;;
45033;SDS011;30771;47.988;-4.186;2023-07-29T19:10:50;14.50;;;2.50;;
45033;SDS011;30771;47.988;-4.186;2023-07-29T19:13:15;15.45;;;2.72;;
45033;SDS011;30771;47.988;-4.186;2023-07-29T19:15:40;12.98;;;2.72;;
45033;SDS011;30771;47.988;-4.186;2023-07-29T19:18:06;12.88;;;2.30;;
45033;SDS011;30771;47.988;-4.186;2023-07-29T19:20:31;14.88;;;3.55;;
45033;SDS011;30771;47.988;-4.186;2023-07-29T19:22:56;15.75;;;2.90;;
45033;SDS011;30771;47.988;-4.186;2023-07-29T19:25:22;15.80;;;2.92;;
45033;SDS011;30771;47.988;-4.186;2023-07-29T19:27:47;17.77;;;3.13;;
45033;SDS011;30771;47.988;-4.186;2023-07-29T19:30:12;20.02;;;3.13;;
45033;SDS011;30771;47.988;-4.186;2023-07-29T19:32:37;16.58;;;3.10;;
45033;SDS011;30771;47.988;-4.186;2023-07-29T19:35:03;17.08;;;3.40;;
45033;SDS011;30771;47.988;-4.186;2023-07-29T19:37:28;21.75;;;3.70;;
45033;SDS011;30771;47.988;-4.186;2023-07-29T19:39:53;15.27;;;2.85;;
45033;SDS011;30771;47.988;-4.186;2023-07-29T19:42:19;28.38;;;4.05;;
45033;SDS011;30771;47.988;-4.186;2023-07-29T19:44:44;21.38;;;3.97;;
45033;SDS011;30771;47.988;-4.186;2023-07-29T19:47:09;20.70;;;4.15;;
45033;SDS011;30771;47.988;-4.186;2023-07-29T19:49:34;15.90;;;3.58;;
45033;SDS011;30771;47.988;-4.186;2023-07-29T19:52:00;14.13;;;3.97;;
45033;SDS011;30771;47.988;-4.186;2023-07-29T19:54:25;13.27;;;3.20;;
45033;SDS011;30771;47.988;-4.186;2023-07-29T19:56:51;16.13;;;3.28;;
45033;SDS011;30771;47.988;-4.186;2023-07-29T19:59:16;19.58;;;3.50;;
45033;SDS011;30771;47.988;-4.186;2023-07-29T20:01:41;17.52;;;3.80;;
45033;SDS011;30771;47.988;-4.186;2023-07-29T20:04:07;18.85;;;3.25;;
45033;SDS011;30771;47.988;-4.186;2023-07-29T20:06:32;22.00;;;3.40;;
45033;SDS011;30771;47.988;-4.186;2023-07-29T20:08:57;19.00;;;3.80;;
45033;SDS011;30771;47.988;-4.186;2023-07-29T20:11:23;21.55;;;4.22;;
45033;SDS011;30771;47.988;-4.186;2023-07-29T20:13:48;19.15;;;3.65;;
45033;SDS011;30771;47.988;-4.186;2023-07-29T20:16:13;20.98;;;3.97;;
45033;SDS011;30771;47.988;-4.186;2023-07-29T20:18:38;18.40;;;3.35;;
45033;SDS011;30771;47.988;-4.186;2023-07-29T20:21:04;22.30;;;3.60;;
45033;SDS011;30771;47.988;-4.186;2023-07-29T20:23:29;24.83;;;4.20;;
45033;SDS011;30771;47.988;-4.186;2023-07-29T20:25:54;26.45;;;5.30;;
45033;SDS011;30771;47.988;-4.186;2023-07-29T20:28:19;18.50;;;3.92;;
45033;SDS011;30771;47.988;-4.186;2023-07-29T20:30:45;22.80;;;3.40;;